Terminal Aerodrome Forecast
Issued by NWS

Home | Current Version | Previous Version | Text Only | Print | Product List | Glossary Off
Versions: 1 2 3 4 5 6 7 8 9 10 11 12 13 14 15 16 17 18 19 20 21 22

000
FTUS43 KGRB 291900 AAA
TAFAUW
TAF AMD
KAUW 291959Z 2920/3018 33015G26KT P6SM OVC040
     FM300000 32013KT P6SM OVC035
     FM300400 32011KT P6SM SCT025
     FM300900 32006KT P6SM FEW020 SCT250
     FM301500 29005KT P6SM FEW020 SCT090 BKN200=

USA.gov is the U.S. government's official web portal to all federal, state and local government web resources and services.